createdAt,value
2023-04-21T00:01:28.179Z,39.70
2023-04-21T00:04:36.123Z,37.60
2023-04-21T00:07:43.595Z,35.80
2023-04-21T00:10:47.049Z,35.80
2023-04-21T00:13:56.312Z,36.20
2023-04-21T00:17:03.797Z,36.90
2023-04-21T00:20:11.469Z,34.30
2023-04-21T00:23:20.887Z,36.90
2023-04-21T00:26:28.400Z,36.10
2023-04-21T00:29:35.763Z,36.40
2023-04-21T00:32:44.972Z,31.50
2023-04-21T00:35:51.964Z,32.90
2023-04-21T00:38:59.852Z,31.90
2023-04-21T00:42:08.932Z,34.00
2023-04-21T00:45:15.988Z,29.70
2023-04-21T00:48:23.712Z,31.70
2023-04-21T00:51:31.506Z,29.90
2023-04-21T00:54:39.979Z,30.90
2023-04-21T00:57:47.723Z,28.50
2023-04-21T01:00:55.266Z,30.10
2023-04-21T01:04:04.147Z,30.70
2023-04-21T01:07:11.871Z,29.00
2023-04-21T01:10:19.299Z,24.40
2023-04-21T01:13:28.640Z,28.40
2023-04-21T01:16:36.212Z,28.30
2023-04-21T01:19:43.407Z,30.70
2023-04-21T01:22:52.890Z,33.60
2023-04-21T01:26:00.345Z,30.50
2023-04-21T01:29:07.821Z,30.20
2023-04-21T01:32:15.787Z,34.50
2023-04-21T01:35:24.249Z,28.20
2023-04-21T01:38:31.870Z,31.60
2023-04-21T01:41:39.634Z,32.20
2023-04-21T01:44:48.205Z,31.90
2023-04-21T01:47:56.022Z,33.50
2023-04-21T01:51:03.513Z,33.40
2023-04-21T01:54:12.425Z,30.90
2023-04-21T01:57:20.274Z,28.80
2023-04-21T02:00:27.710Z,33.30
2023-04-21T02:03:36.751Z,34.00
2023-04-21T02:06:44.181Z,31.40
2023-04-21T02:09:51.973Z,29.50
2023-04-21T02:12:59.495Z,32.60
2023-04-21T02:16:13.484Z,33.30
2023-04-21T02:19:10.803Z,29.80
2023-04-21T02:22:18.739Z,31.20
2023-04-21T02:25:27.230Z,28.00
2023-04-21T02:28:35.310Z,28.90
2023-04-21T02:31:57.399Z,27.70
2023-04-21T02:34:48.350Z,30.10
2023-04-21T02:37:56.249Z,27.90
2023-04-21T02:41:03.846Z,32.10
2023-04-21T02:44:12.979Z,26.80
2023-04-21T02:47:20.698Z,30.20
2023-04-21T02:50:27.930Z,30.70
2023-04-21T02:53:36.736Z,31.50
2023-04-21T02:56:44.470Z,34.40
2023-04-21T02:59:51.901Z,33.80
2023-04-21T03:02:59.492Z,31.00
2023-04-21T03:06:08.696Z,27.30
2023-04-21T03:09:16.232Z,29.30
2023-04-21T03:12:23.845Z,31.40
2023-04-21T03:15:32.566Z,27.60
2023-04-21T03:18:40.147Z,32.50
2023-04-21T03:21:47.531Z,30.90
2023-04-21T03:24:56.314Z,28.50
2023-04-21T03:28:03.883Z,32.30
2023-04-21T03:31:11.462Z,35.40
2023-04-21T03:34:20.269Z,33.80
2023-04-21T03:37:28.321Z,34.70
2023-04-21T03:40:35.426Z,29.40
2023-04-21T03:43:43.036Z,28.00
2023-04-21T03:46:52.207Z,30.80
2023-04-21T03:49:59.252Z,30.30
2023-04-21T03:53:07.071Z,37.40
2023-04-21T03:56:15.879Z,31.70
2023-04-21T03:59:23.337Z,29.40
2023-04-21T04:02:31.455Z,35.00
2023-04-21T04:05:40.622Z,32.50
2023-04-21T04:08:48.119Z,28.50
2023-04-21T04:11:55.151Z,36.20
2023-04-21T04:15:04.458Z,36.90
2023-04-21T04:18:11.808Z,36.90
2023-04-21T04:21:19.469Z,32.30
2023-04-21T04:24:27.339Z,36.40
2023-04-21T04:27:35.940Z,36.60
2023-04-21T04:30:43.756Z,35.10
2023-04-21T04:33:54.693Z,30.60
2023-04-21T04:36:53.068Z,35.20
2023-04-21T04:40:00.841Z,35.80
2023-04-21T04:43:08.542Z,35.70
2023-04-21T04:46:17.115Z,34.50
2023-04-21T04:49:24.899Z,33.40
2023-04-21T04:52:32.597Z,32.70
2023-04-21T04:55:41.057Z,33.90
2023-04-21T04:58:48.784Z,36.80
2023-04-21T05:01:56.486Z,39.00
2023-04-21T05:05:03.469Z,34.90
2023-04-21T05:08:13.258Z,36.90
2023-04-21T05:11:21.608Z,38.90
2023-04-21T05:14:29.170Z,38.40
2023-04-21T05:17:38.545Z,35.10
2023-04-21T05:20:46.059Z,32.40
2023-04-21T05:23:53.640Z,40.40
2023-04-21T05:27:02.580Z,38.40
2023-04-21T05:30:10.492Z,37.30
2023-04-21T05:33:18.217Z,35.80
2023-04-21T05:36:26.911Z,33.40
2023-04-21T05:39:35.088Z,35.00
2023-04-21T05:42:42.874Z,29.50
2023-04-21T05:45:50.347Z,25.00
2023-04-21T05:48:59.619Z,28.20
2023-04-21T05:52:06.797Z,22.20
2023-04-21T05:55:14.677Z,26.20
2023-04-21T05:58:23.715Z,24.30
2023-04-21T06:01:25.894Z,19.10
2023-04-21T06:04:35.315Z,17.90
2023-04-21T06:07:44.555Z,22.20
2023-04-21T06:10:52.551Z,17.20
2023-04-21T06:14:00.140Z,19.80
2023-04-21T06:17:09.303Z,18.70
2023-04-21T06:20:17.556Z,16.70
2023-04-21T06:23:24.899Z,15.70
2023-04-21T06:26:34.192Z,15.20
2023-04-21T06:29:42.288Z,19.00
2023-04-21T06:32:49.646Z,14.30
2023-04-21T06:35:57.676Z,19.20
2023-04-21T06:39:06.780Z,16.00
2023-04-21T06:42:14.341Z,18.30
2023-04-21T06:45:22.409Z,20.60
2023-04-21T06:48:31.536Z,15.80
2023-04-21T06:51:39.213Z,19.60
2023-04-21T06:54:47.166Z,9.80
2023-04-21T06:57:56.315Z,16.00
2023-04-21T07:01:04.275Z,19.50
2023-04-21T07:04:12.404Z,15.00
2023-04-21T07:07:21.215Z,19.50
2023-04-21T07:10:28.542Z,14.30
2023-04-21T07:13:36.204Z,14.90
2023-04-21T07:16:44.719Z,16.70
2023-04-21T07:19:53.771Z,16.40
2023-04-21T07:23:01.432Z,16.90
2023-04-21T07:26:09.524Z,13.90
2023-04-21T07:29:18.790Z,17.10
2023-04-21T07:32:26.488Z,11.10
2023-04-21T07:35:34.702Z,11.10
2023-04-21T07:38:43.091Z,14.40
2023-04-21T07:41:51.067Z,11.00
2023-04-21T07:44:59.001Z,14.40
2023-04-21T07:48:07.817Z,15.90
2023-04-21T07:51:15.666Z,16.70
2023-04-21T07:54:23.117Z,17.50
2023-04-21T07:57:30.456Z,18.10
2023-04-21T08:00:39.325Z,14.20
2023-04-21T08:03:46.932Z,13.00
2023-04-21T08:06:55.328Z,10.00
2023-04-21T08:10:04.383Z,14.40
2023-04-21T08:13:12.349Z,12.50
2023-04-21T08:16:20.733Z,15.70
2023-04-21T08:19:29.755Z,17.60
2023-04-21T08:22:37.282Z,11.90
2023-04-21T08:25:45.160Z,16.80
2023-04-21T08:28:53.998Z,16.30
2023-04-21T08:32:02.210Z,12.90
2023-04-21T08:35:10.506Z,12.10
2023-04-21T08:38:17.847Z,13.50
2023-04-21T08:41:27.409Z,14.80
2023-04-21T08:44:35.595Z,10.00
2023-04-21T08:47:43.261Z,10.50
2023-04-21T08:50:52.840Z,12.60
2023-04-21T08:54:00.261Z,11.70
2023-04-21T08:57:15.457Z,17.00
2023-04-21T09:00:13.815Z,12.30
2023-04-21T09:03:26.050Z,9.60
2023-04-21T09:06:23.593Z,15.70
2023-04-21T09:09:32.470Z,11.40
2023-04-21T09:12:40.443Z,12.40
2023-04-21T09:15:47.807Z,7.00
2023-04-21T09:18:54.925Z,12.30
2023-04-21T09:22:04.210Z,8.80
2023-04-21T09:25:11.531Z,9.20
2023-04-21T09:28:19.322Z,12.40
2023-04-21T09:31:28.507Z,7.30
2023-04-21T09:34:36.121Z,10.50
2023-04-21T09:37:43.876Z,10.60
2023-04-21T09:40:53.017Z,11.80
2023-04-21T09:44:00.604Z,9.80
2023-04-21T09:47:08.092Z,11.50
2023-04-21T09:50:20.558Z,11.00
2023-04-21T09:53:21.954Z,10.40
2023-04-21T09:56:29.498Z,7.40
2023-04-21T09:59:38.581Z,8.50
2023-04-21T10:02:46.629Z,11.50
2023-04-21T10:05:54.083Z,12.40
2023-04-21T10:09:02.113Z,9.40
2023-04-21T10:12:11.314Z,10.10
2023-04-21T10:15:18.493Z,9.20
2023-04-21T10:18:26.404Z,10.60
2023-04-21T10:21:35.201Z,11.50
2023-04-21T10:24:42.767Z,11.40
2023-04-21T10:27:50.416Z,8.00
2023-04-21T10:30:59.484Z,8.10
2023-04-21T10:34:07.424Z,13.30
2023-04-21T10:37:15.372Z,7.50
2023-04-21T10:40:36.431Z,11.20
2023-04-21T10:43:29.330Z,9.80
2023-04-21T10:46:37.031Z,6.80
2023-04-21T10:49:45.044Z,8.60
2023-04-21T10:52:53.970Z,8.60
2023-04-21T10:56:01.187Z,7.40
2023-04-21T10:59:08.787Z,8.00
2023-04-21T11:02:18.243Z,6.60
2023-04-21T11:05:25.537Z,6.80
2023-04-21T11:08:33.397Z,7.10
2023-04-21T11:11:42.396Z,7.60
2023-04-21T11:14:49.891Z,8.40
2023-04-21T11:17:57.644Z,7.10
2023-04-21T11:21:06.587Z,7.10
2023-04-21T11:24:14.081Z,6.00
2023-04-21T11:27:21.806Z,6.00
2023-04-21T11:30:28.950Z,11.20
2023-04-21T11:33:38.061Z,8.00
2023-04-21T11:36:45.376Z,9.50
2023-04-21T11:39:53.159Z,6.40
2023-04-21T11:43:02.109Z,6.40
2023-04-21T11:46:09.671Z,6.60
2023-04-21T11:49:17.709Z,8.50
2023-04-21T11:52:26.366Z,5.20
2023-04-21T11:55:34.108Z,6.20
2023-04-21T11:58:42.040Z,9.20
2023-04-21T12:01:50.862Z,7.90
2023-04-21T12:04:59.536Z,7.30
2023-04-21T12:08:07.244Z,6.40
2023-04-21T12:11:15.610Z,7.10
2023-04-21T12:14:23.447Z,6.80
2023-04-21T12:17:31.036Z,6.00
2023-04-21T12:20:38.041Z,8.00
2023-04-21T12:23:47.294Z,8.50
2023-04-21T12:26:54.806Z,7.30
2023-04-21T12:30:02.391Z,5.80
2023-04-21T12:33:11.586Z,7.10
2023-04-21T12:36:18.849Z,6.00
2023-04-21T12:39:26.452Z,6.80
2023-04-21T12:42:37.860Z,5.20
2023-04-21T12:45:45.963Z,7.00
2023-04-21T12:48:53.500Z,7.00
2023-04-21T12:52:02.628Z,5.50
2023-04-21T12:55:10.046Z,6.40
2023-04-21T12:58:17.424Z,4.50
2023-04-21T13:01:25.101Z,6.20
2023-04-21T13:04:34.374Z,5.70
2023-04-21T13:07:41.753Z,6.30
2023-04-21T13:10:49.352Z,4.30
2023-04-21T13:13:58.552Z,7.10
2023-04-21T13:17:06.010Z,9.30
2023-04-21T13:20:13.337Z,6.30
2023-04-21T13:23:22.435Z,6.10
2023-04-21T13:26:30.218Z,4.50
2023-04-21T13:29:37.924Z,4.80
2023-04-21T13:32:48.201Z,9.20
2023-04-21T13:35:55.465Z,5.10
2023-04-21T13:39:04.285Z,4.50
2023-04-21T13:42:10.150Z,8.60
2023-04-21T13:45:17.407Z,5.30
2023-04-21T13:48:25.087Z,4.30
2023-04-21T13:51:34.325Z,5.30
2023-04-21T13:54:41.453Z,6.20
2023-04-21T13:57:49.279Z,6.70
2023-04-21T14:00:57.359Z,4.80
2023-04-21T14:04:06.417Z,5.80
2023-04-21T14:07:14.948Z,4.70
2023-04-21T14:10:22.776Z,5.30
2023-04-21T14:13:37.867Z,5.60
2023-04-21T14:16:37.226Z,5.10
2023-04-21T14:19:45.161Z,4.60
2023-04-21T14:22:53.776Z,7.60
2023-04-21T14:26:01.826Z,10.90
2023-04-21T14:29:09.711Z,8.10
2023-04-21T14:32:19.122Z,5.30
2023-04-21T14:35:26.690Z,4.60
2023-04-21T14:38:34.577Z,11.30
2023-04-21T14:41:42.055Z,7.20
2023-04-21T14:44:50.909Z,6.00
2023-04-21T14:47:59.054Z,6.10
2023-04-21T14:51:06.575Z,6.10
2023-04-21T14:54:15.240Z,5.40
2023-04-21T14:57:23.107Z,8.30
2023-04-21T15:00:30.661Z,5.20
2023-04-21T15:03:39.735Z,6.30
2023-04-21T15:06:47.460Z,7.30
2023-04-21T15:09:54.843Z,7.00
2023-04-21T15:13:03.813Z,5.70
2023-04-21T15:16:11.402Z,6.10
2023-04-21T15:19:18.619Z,7.80
2023-04-21T15:22:27.965Z,5.60
2023-04-21T15:25:35.627Z,8.40
2023-04-21T15:28:43.002Z,13.10
2023-04-21T15:31:50.533Z,5.30
2023-04-21T15:35:00.163Z,6.40
2023-04-21T15:38:07.519Z,5.30
2023-04-21T15:41:15.610Z,6.80
2023-04-21T15:44:24.864Z,6.40
2023-04-21T15:47:33.464Z,5.10
2023-04-21T15:50:42.042Z,6.10
2023-04-21T15:53:50.908Z,6.30
2023-04-21T15:56:58.549Z,5.80
2023-04-21T16:00:06.829Z,7.80
2023-04-21T16:03:16.646Z,7.90
2023-04-21T16:06:24.401Z,6.20
2023-04-21T16:09:32.377Z,5.30
2023-04-21T16:12:40.320Z,7.00
2023-04-21T16:15:49.181Z,5.90
2023-04-21T16:18:56.214Z,7.60
2023-04-21T16:22:04.242Z,6.50
2023-04-21T16:25:13.696Z,8.60
2023-04-21T16:28:20.845Z,4.00
2023-04-21T16:31:28.664Z,5.70
2023-04-21T16:34:38.116Z,4.40
2023-04-21T16:37:45.875Z,6.30
2023-04-21T16:40:53.528Z,9.10
2023-04-21T16:44:02.618Z,7.30
2023-04-21T16:47:10.649Z,6.20
2023-04-21T16:50:18.225Z,4.70
2023-04-21T16:53:26.357Z,6.30
2023-04-21T16:56:35.372Z,7.30
2023-04-21T16:59:43.162Z,6.10
2023-04-21T17:02:50.945Z,6.20
2023-04-21T17:05:59.775Z,9.20
2023-04-21T17:09:07.135Z,5.40
2023-04-21T17:12:14.549Z,4.80
2023-04-21T17:15:23.410Z,7.70
2023-04-21T17:18:30.772Z,6.30
2023-04-21T17:21:38.860Z,5.30
2023-04-21T17:27:57.693Z,9.70
2023-04-21T17:31:14.964Z,6.90
2023-04-21T17:34:12.267Z,6.90
2023-04-21T17:37:19.270Z,8.30
2023-04-21T17:40:27.238Z,9.40
2023-04-21T17:43:35.087Z,7.60
2023-04-21T17:46:44.118Z,8.30
2023-04-21T17:49:52.215Z,7.10
2023-04-21T17:52:59.660Z,7.50
2023-04-21T17:56:08.611Z,9.10
2023-04-21T17:59:16.452Z,7.70
2023-04-21T18:02:23.943Z,7.50
2023-04-21T18:05:32.739Z,9.30
2023-04-21T18:08:40.588Z,8.10
2023-04-21T18:11:48.125Z,6.00
2023-04-21T18:14:57.348Z,7.60
2023-04-21T18:18:04.886Z,6.30
2023-04-21T18:21:12.799Z,8.50
2023-04-21T18:24:20.262Z,6.20
2023-04-21T18:27:29.205Z,7.50
2023-04-21T18:30:37.008Z,6.40
2023-04-21T18:33:44.300Z,7.00
2023-04-21T18:36:53.223Z,7.00
2023-04-21T18:40:00.920Z,7.50
2023-04-21T18:43:08.054Z,10.20
2023-04-21T18:46:17.280Z,6.80
2023-04-21T18:49:24.941Z,7.60
2023-04-21T18:52:31.990Z,7.00
2023-04-21T18:55:41.083Z,7.40
2023-04-21T18:58:48.854Z,8.70
2023-04-21T19:01:55.995Z,9.20
2023-04-21T19:05:03.770Z,6.30
2023-04-21T19:08:12.822Z,8.10
2023-04-21T19:11:19.861Z,7.80
2023-04-21T19:14:27.737Z,7.20
2023-04-21T19:17:36.581Z,9.20
2023-04-21T19:20:43.958Z,7.80
2023-04-21T19:23:51.992Z,10.10
2023-04-21T19:27:00.727Z,7.90
2023-04-21T19:30:08.217Z,8.30
2023-04-21T19:33:16.247Z,7.90
2023-04-21T19:36:25.182Z,9.00
2023-04-21T19:39:32.644Z,8.60
2023-04-21T19:42:41.938Z,8.40
2023-04-21T19:45:49.539Z,6.50
2023-04-21T19:48:58.447Z,9.20
2023-04-21T19:52:05.915Z,8.20
2023-04-21T19:55:13.835Z,6.60
2023-04-21T19:58:38.905Z,6.30
2023-04-21T20:01:26.835Z,8.80
2023-04-21T20:04:34.557Z,7.00
2023-04-21T20:07:43.657Z,8.40
2023-04-21T20:10:51.035Z,8.20
2023-04-21T20:13:58.872Z,9.70
2023-04-21T20:17:07.482Z,8.90
2023-04-21T20:20:15.198Z,10.10
2023-04-21T20:23:22.871Z,10.20
2023-04-21T20:26:31.460Z,7.70
2023-04-21T20:29:39.583Z,9.10
2023-04-21T20:32:47.755Z,9.00
2023-04-21T20:35:54.750Z,7.60
2023-04-21T20:39:03.585Z,7.70
2023-04-21T20:42:13.437Z,6.90
2023-04-21T20:45:20.946Z,7.50
2023-04-21T20:48:30.217Z,8.10
2023-04-21T20:51:37.667Z,8.80
2023-04-21T20:54:45.083Z,11.20
2023-04-21T20:57:54.299Z,8.30
2023-04-21T21:01:01.720Z,7.80
2023-04-21T21:04:09.136Z,7.90
2023-04-21T21:07:18.594Z,9.00
2023-04-21T21:10:25.733Z,11.40
2023-04-21T21:13:33.180Z,8.70
2023-04-21T21:16:40.793Z,8.30
2023-04-21T21:19:50.039Z,8.00
2023-04-21T21:22:57.472Z,7.60
2023-04-21T21:26:04.619Z,12.00
2023-04-21T21:29:13.892Z,9.60
2023-04-21T21:32:21.752Z,9.00
2023-04-21T21:35:28.885Z,8.70
2023-04-21T21:38:38.182Z,11.40
2023-04-21T21:41:46.044Z,8.90
2023-04-21T21:44:53.385Z,9.90
2023-04-21T21:48:02.284Z,10.30
2023-04-21T21:51:09.347Z,12.10
2023-04-21T21:54:16.836Z,9.70
2023-04-21T21:57:25.493Z,10.40
2023-04-21T22:00:35.661Z,9.10
2023-04-21T22:03:44.586Z,10.30
2023-04-21T22:06:52.658Z,11.20
2023-04-21T22:10:01.757Z,11.30
2023-04-21T22:13:09.414Z,12.20
2023-04-21T22:16:17.362Z,9.80
2023-04-21T22:19:26.358Z,9.10
2023-04-21T22:22:34.009Z,10.80
2023-04-21T22:25:41.262Z,11.20
2023-04-21T22:28:50.413Z,13.10
2023-04-21T22:31:57.897Z,9.40
2023-04-21T22:35:05.348Z,11.10
2023-04-21T22:38:13.259Z,12.00
2023-04-21T22:41:22.268Z,10.60
2023-04-21T22:44:29.524Z,10.10
2023-04-21T22:47:37.499Z,11.40
2023-04-21T22:50:46.553Z,9.70
2023-04-21T22:53:53.753Z,12.10
2023-04-21T22:57:01.791Z,11.90
2023-04-21T23:00:10.639Z,10.70
2023-04-21T23:03:18.186Z,10.20
2023-04-21T23:06:26.110Z,11.40
2023-04-21T23:09:34.849Z,11.00
2023-04-21T23:12:42.225Z,12.20
2023-04-21T23:15:49.992Z,9.50
2023-04-21T23:18:59.107Z,13.30
2023-04-21T23:22:06.739Z,10.80
2023-04-21T23:25:14.559Z,15.20
2023-04-21T23:28:22.051Z,11.10
2023-04-21T23:31:30.852Z,11.30
2023-04-21T23:34:37.902Z,10.00
2023-04-21T23:37:45.871Z,10.90
2023-04-21T23:40:55.115Z,14.10
2023-04-21T23:44:02.244Z,12.20
2023-04-21T23:47:09.740Z,12.00
2023-04-21T23:50:18.790Z,13.00
2023-04-21T23:53:25.940Z,11.80
2023-04-21T23:56:33.824Z,9.80
2023-04-21T23:59:42.305Z,12.80
